Flight Track Log - Related Links

Times and Time Zones

All times are in EDT time to prevent confusion due to time zone crossing. See the ASQ4577 flight status page for this flight to view local times or setup timezone preferences in your user account.

Time Position Orientation Groundspeed Altitude Reporting Facility
EDT Latitude Longitude Course Direction KTS km/h meters Rate Location/Type
Wed 16:12:58 32.8333 -97.0167 164° South 204 378 975  Level Dallas / Fort Worth TRACON
Wed 16:13:59 32.8000 -96.9667 128° Southeast 271 502 1,494 541 Climbing Dallas / Fort Worth TRACON
Wed 16:14:53 32.8000 -96.8833 90° East 279 517 2,012 615 Climbing Dallas / Fort Worth TRACON
Wed 16:15:52 32.8000 -96.7833 90° East 290 538 2,652 444 Climbing Dallas / Fort Worth TRACON
Wed 16:17:46 32.7931 -96.5881 92° East 331 613 3,292 378 Climbing Fort Worth Center
Wed 16:18:46 32.7922 -96.4669 90° East 353 653 3,749 549 Climbing Fort Worth Center
Wed 16:19:46 32.8081 -96.3506 81° East 365 676 4,389 610 Climbing Fort Worth Center
Wed 16:20:46 32.8636 -96.2486 57° Northeast 351 650 4,968 549 Climbing Fort Worth Center
Wed 16:21:46 32.9147 -96.1464 59° Northeast 356 660 5,486 472 Climbing Fort Worth Center
Wed 16:22:46 32.9636 -96.0367 62° Northeast 356 660 5,913 427 Climbing Fort Worth Center
Wed 16:23:46 33.0147 -95.9319 60° Northeast 356 660 6,340 381 Climbing Fort Worth Center
Wed 16:24:46 33.0656 -95.8194 62° Northeast 366 678 6,675 396 Climbing Fort Worth Center
Wed 16:25:46 33.1203 -95.7069 60° Northeast 379 702 7,132 427 Climbing Fort Worth Center
Wed 16:26:46 33.1708 -95.5894 63° Northeast 385 713 7,529 290 Climbing Fort Worth Center
Wed 16:27:46 33.2233 -95.4739 61° Northeast 390 723 7,711 274 Climbing Fort Worth Center
Wed 16:28:46 33.2800 -95.3511 61° Northeast 396 734 8,077 335 Climbing Fort Worth Center
Wed 16:29:46 33.3342 -95.2331 61° Northeast 402 745 8,382 290 Climbing Fort Worth Center
Wed 16:30:46 33.3906 -95.1122 61° Northeast 402 745 8,656 290 Climbing Fort Worth Center
Wed 16:31:46 33.4486 -94.9861 61° Northeast 407 753 8,961 305 Climbing Fort Worth Center
Wed 16:32:46 33.5067 -94.8600 61° Northeast 421 779 9,266 305 Climbing Fort Worth Center
Wed 16:33:46 33.5625 -94.7361 62° Northeast 421 779 9,571 305 Climbing Fort Worth Center
Wed 16:34:46 33.6244 -94.6072 60° Northeast 427 790 9,876 290 Climbing Fort Worth Center
Wed 16:35:46 33.6819 -94.4781 62° Northeast 427 790 10,150 290 Climbing Fort Worth Center
Wed 16:36:46 33.7394 -94.3486 62° Northeast 427 790 10,455 259 Climbing Fort Worth Center
Wed 16:37:46 33.7931 -94.2344 61° Northeast 433 801 10,668 229 Climbing Fort Worth Center
Wed 16:38:46 33.8500 -94.1022 63° Northeast 433 801 10,912 204 Climbing Fort Worth Center
Wed 16:40:45 33.9633 -93.8508 61° Northeast 449 832 11,278 123 Climbing Memphis Center
Wed 16:41:45 34.0211 -93.7178 62° Northeast 449 832 11,278  Level Memphis Center
Wed 16:42:45 34.0792 -93.5797 63° Northeast 449 832 11,278  Level Memphis Center
Wed 16:43:45 34.1411 -93.4339 63° Northeast 457 847 11,278  Level Memphis Center
Wed 16:44:45 34.2072 -93.2881 61° Northeast 474 877 11,278  Level Memphis Center
Wed 16:45:45 34.2733 -93.1369 62° Northeast 488 904 11,278  Level Memphis Center
Wed 16:46:45 34.3419 -92.9606 65° Northeast 512 948 11,278  Level Memphis Center
Wed 16:47:45 34.4094 -92.8117 61° Northeast 512 948 11,278  Level Memphis Center
Wed 16:48:45 34.4772 -92.6525 63° Northeast 512 948 11,278  Level Memphis Center
Wed 16:49:45 34.5425 -92.4953 63° Northeast 518 959 11,278  Level Memphis Center
Wed 16:50:45 34.6078 -92.3381 63° Northeast 513 950 11,278  Level Memphis Center
Wed 16:51:45 34.6747 -92.1906 61° Northeast 506 937 11,278  Level Memphis Center
Wed 16:52:45 34.7683 -92.0636 48° Northeast 496 919 11,278  Level Memphis Center
Wed 16:53:45 34.8639 -91.9389 47° Northeast 496 919 11,278  Level Memphis Center
Wed 16:54:45 34.9592 -91.8167 46° Northeast 496 919 11,278  Level Memphis Center
Wed 16:55:45 35.0544 -91.6939 47° Northeast 496 919 11,278  Level Memphis Center
Wed 16:56:45 35.1517 -91.5711 46° Northeast 491 909 11,278  Level Memphis Center
Wed 16:57:45 35.2467 -91.4478 47° Northeast 491 909 11,278  Level Memphis Center
Wed 16:58:45 35.3394 -91.3269 47° Northeast 491 909 11,278  Level Memphis Center
Wed 16:59:45 35.4322 -91.2081 46° Northeast 491 909 11,278  Level Memphis Center
Wed 17:00:45 35.5225 -91.0814 49° Northeast 485 898 11,278  Level Memphis Center
Wed 17:01:45 35.6025 -90.9494 53° Northeast 485 898 11,278  Level Memphis Center
Wed 17:02:45 35.6844 -90.8119 54° Northeast 490 908 11,278  Level Memphis Center
Wed 17:03:45 35.7517 -90.6922 55° Northeast 484 896 11,278  Level Memphis Center
Wed 17:04:45 35.8269 -90.5592 55° Northeast 479 887 11,278 -61 Level Memphis Center
Wed 17:05:45 35.9083 -90.4236 53° Northeast 479 887 11,156 -198 Descending Memphis Center
Wed 17:06:45 35.9897 -90.2853 54° Northeast 484 896 10,881 -244 Descending Memphis Center
Wed 17:07:45 36.0708 -90.1517 53° Northeast 489 906 10,668 -107 Descending Memphis Center
Wed 17:08:45 36.1478 -90.0178 55° Northeast 489 906 10,668  Level Memphis Center
Wed 17:09:45 36.2264 -89.8836 54° Northeast 484 896 10,668  Level Memphis Center
Wed 17:10:45 36.3072 -89.7492 53° Northeast 484 896 10,668  Level Memphis Center
Wed 17:11:45 36.3878 -89.6119 54° Northeast 484 896 10,668  Level Memphis Center
Wed 17:12:45 36.4786 -89.4667 52° Northeast 484 896 10,668  Level Memphis Center
Wed 17:13:45 36.5608 -89.3211 55° Northeast 495 917 10,668 91 Level Memphis Center
Wed 17:14:45 36.6367 -89.1803 56° Northeast 495 917 10,851 244 Climbing Memphis Center
Wed 17:15:45 36.7103 -89.0472 55° Northeast 483 895 11,156 213 Climbing Memphis Center
Wed 17:16:45 36.7839 -88.9167 55° Northeast 470 871 11,278 61 Climbing Memphis Center
Wed 17:17:45 36.8614 -88.7803 55° Northeast 470 871 11,278  Level Memphis Center
Wed 17:18:45 36.9367 -88.6517 54° Northeast 470 871 11,278  Level Memphis Center
Wed 17:19:45 37.0139 -88.5097 56° Northeast 475 880 11,278  Level Memphis Center
Wed 17:21:27 37.1464 -88.2631 56° Northeast 499 924 11,278  Level Indianapolis Center
Wed 17:22:29 37.2267 -88.1172 55° Northeast 502 930 11,278  Level Indianapolis Center
Wed 17:23:31 37.3025 -87.9808 55° Northeast 479 887 11,278  Level Indianapolis Center
Wed 17:24:33 37.3750 -87.8486 55° Northeast 458 848 11,278  Level Indianapolis Center
Wed 17:25:35 37.4475 -87.7147 56° Northeast 458 848 11,278  Level Indianapolis Center
Wed 17:26:37 37.5239 -87.5847 53° Northeast 458 848 11,278  Level Indianapolis Center
Wed 17:27:40 37.6028 -87.4597 51° Northeast 453 838 11,278  Level Indianapolis Center
Wed 17:28:42 37.6950 -87.3144 51° Northeast 450 834 11,278  Level Indianapolis Center
Wed 17:29:44 37.7694 -87.1972 51° Northeast 454 840 11,278  Level Indianapolis Center
Wed 17:30:46 37.8475 -87.0731 51° Northeast 453 838 11,278  Level Indianapolis Center
Wed 17:31:48 37.9250 -86.9492 52° Northeast 451 835 11,278  Level Indianapolis Center
Wed 17:32:50 38.0178 -86.7994 52° Northeast 453 838 11,278  Level Indianapolis Center
Wed 17:33:52 38.0953 -86.6756 51° Northeast 452 837 11,278  Level Indianapolis Center
Wed 17:34:54 38.1717 -86.5500 52° Northeast 452 837 11,278  Level Indianapolis Center
Wed 17:35:56 38.2492 -86.4247 52° Northeast 453 838 11,278  Level Indianapolis Center
Wed 17:36:58 38.3264 -86.3008 52° Northeast 450 834 11,278  Level Indianapolis Center
Wed 17:38:00 38.4031 -86.1736 52° Northeast 451 835 11,278  Level Indianapolis Center
Wed 17:39:02 38.4953 -86.0239 52° Northeast 446 826 11,278  Level Indianapolis Center
Wed 17:40:04 38.5728 -85.8983 52° Northeast 449 832 11,278  Level Indianapolis Center
Wed 17:41:06 38.6522 -85.7650 53° Northeast 444 822 11,278  Level Indianapolis Center
Wed 17:42:08 38.7261 -85.6414 53° Northeast 442 819 11,278  Level Indianapolis Center
Wed 17:43:10 38.8003 -85.5178 52° Northeast 439 813 11,278  Level Indianapolis Center
Wed 17:44:12 38.8733 -85.3944 53° Northeast 437 810 11,278  Level Indianapolis Center
Wed 17:45:14 38.9444 -85.2683 54° Northeast 438 811 11,278  Level Indianapolis Center
Wed 17:46:16 39.0003 -85.0947 67° East 442 819 11,278  Level Indianapolis Center
Wed 17:47:18 39.0492 -84.9511 66° East 440 814 11,278  Level Indianapolis Center
Wed 17:48:21 39.0947 -84.8103 67° East 439 813 11,278 -44 Level Indianapolis Center
Wed 17:49:23 39.1489 -84.6697 64° Northeast 435 806 11,186 -192 Descending Indianapolis Center
Wed 17:50:25 39.2158 -84.5411 56° Northeast 430 797 10,881 -398 Descending Indianapolis Center
Wed 17:51:27 39.3156 -84.4131 45° Northeast 431 798 10,363 -472 Descending Indianapolis Center
Wed 17:52:29 39.4081 -84.3103 41° Northeast 434 803 9,906 -443 Descending Indianapolis Center
Wed 17:53:31 39.5017 -84.2058 41° Northeast 439 813 9,449 -457 Descending Indianapolis Center
Wed 17:54:33 39.5956 -84.1008 41° Northeast 441 816 8,961 -339 Descending Indianapolis Center
Wed 17:55:35 39.6897 -83.9947 41° Northeast 442 819 8,748 -310 Descending Indianapolis Center
Wed 17:56:37 39.7864 -83.8908 40° Northeast 442 819 8,321 -413 Descending Indianapolis Center
Wed 17:57:39 39.8842 -83.7869 39° Northeast 446 826 7,894 -413 Descending Indianapolis Center
Wed 17:58:41 39.9822 -83.6822 39° Northeast 446 826 7,468 -295 Descending Indianapolis Center
Wed 17:59:43 40.0789 -83.5761 40° Northeast 445 824 7,285 -236 Descending Indianapolis Center
Wed 18:00:45 40.1756 -83.4717 40° Northeast 443 821 6,980 -310 Descending Indianapolis Center
Wed 18:01:47 40.2872 -83.3394 42° Northeast 457 847 6,645 -310 Descending Indianapolis Center
Wed 18:02:49 40.3764 -83.2244 44° Northeast 451 835 6,340 -295 Descending Indianapolis Center
Wed 18:03:51 40.4631 -83.1142 44° Northeast 437 810 6,035 -428 Descending Indianapolis Center
Wed 18:04:53 40.5469 -83.0056 45° Northeast 423 784 5,456 -644 Descending Indianapolis Center
Wed 18:05:56 40.6331 -82.8967 44° Northeast 425 787 4,694 -790 Descending Indianapolis Center
Wed 18:06:21 40.6742 -82.8417 45° Northeast 420 777 4,298 -817 Descending Cleveland Center
Wed 18:07:21 40.7492 -82.7456 44° Northeast 394 729 3,536 -472 Descending Cleveland Center
Wed 18:08:21 40.8217 -82.6492 45° Northeast 368 681 3,353 -91 Descending Cleveland Center
Wed 18:09:21 40.9028 -82.5500 43° Northeast 380 703 3,353 -40 Level Cleveland Center
Wed 18:09:52 40.9392 -82.4961 48° Northeast 405 750 3,292 -152 Descending Cleveland Center
Wed 18:10:21 40.9669 -82.4586 46° Northeast 380 703 3,200 -210 Descending Cleveland Center
Wed 18:10:53 41.0117 -82.4019 44° Northeast 363 673 3,078 -152 Descending Cleveland Center
Wed 18:11:21 41.0392 -82.3669 44° Northeast 366 678 3,048  Descending Cleveland Center
Wed 18:11:54 41.0817 -82.3103 45° Northeast 359 665 3,078  Climbing Cleveland Center
Wed 18:12:21 41.1075 -82.2669 52° Northeast 359 665 3,048  Descending Cleveland Center
Wed 18:12:54 41.1542 -82.2128 41° Northeast 366 678 3,078 30 Climbing Cleveland Center
Wed 18:13:21 41.1881 -82.1669 45° Northeast 354 655 3,078 -90 Level Cleveland Center
Wed 18:13:55 41.2264 -82.1181 44° Northeast 335 621 2,987 -183 Descending Cleveland Center
Wed 18:14:21 41.2456 -82.0881 50° Northeast 342 634 2,896 -390 Descending Cleveland Center
Wed 18:14:56 41.2836 -82.0367 45° Northeast 282 523 2,591 -396 Descending Cleveland Center
Wed 18:15:21 41.3028 -82.0122 44° Northeast 312 578 2,499 -330 Descending Cleveland Center
Wed 18:15:57 41.3181 -81.9489 72° East 284 526 2,256 -335 Descending Cleveland Center
Wed 18:16:21 41.3269 -81.9131 72° East 274 507 2,164 -133 Descending Cleveland Center
Wed 18:16:52 41.3378 -81.8636 74° East 262 486 2,134  Descending Cleveland Center
Wed 18:17:21 41.3444 -81.8250 77° East 262 486 2,164 30 Climbing Cleveland Center
Wed 18:17:52 41.3594 -81.7839 64° Northeast 236 438 2,164 -30 Level Cleveland Center
Wed 18:18:21 41.3786 -81.7536 50° Northeast 239 443 2,134  Descending Cleveland Center
Wed 18:18:53 41.4061 -81.7208 42° Northeast 236 438 2,164 -19 Climbing Cleveland Center
Wed 18:20:00 41.4567 -81.6469 48° Northeast 245 454 2,103 -195 Descending Cleveland Center
Wed 18:20:55 41.4992 -81.5867 47° Northeast 237 439 1,768 -300 Descending Cleveland Center
Wed 18:21:56 41.5431 -81.5542 29° Northeast 201 372 1,524 -227 Descending Cleveland Center
Wed 18:22:56 41.5425 -81.6122 269° West 164 304 1,311 -151 Descending Cleveland Center
Wed 18:23:57 41.5294 -81.6706 253° West 168 311 1,219 -158 Descending Cleveland Center
Wed 18:24:52 41.5000 -81.7169 230° Southwest 186 344 1,006 -233 Descending Cleveland Center

Login

Don't have an account? Register now (free) for customized features, flight alerts, and more!